IGO691 VOHS-VABB
Flight info
| Callsign | IGO691 |
|---|---|
| Flight time | N/A |
| Altitude | 32000 |
| Route | TAMIV5 APUSU W18 OPAKA EMRAK2A |
| Aircraft | A20N/M-SDE2E3FGHIRWXY/LB1 |
Departure
| Time | 2026-04-25 09:47 |
|---|---|
| Airport | Rajiv Gandhi International Airport (VOHS) |
Arrival
| Time | N/A |
|---|---|
| Airport | Chhatrapati Shivaji Maharaj International Airport (VABB) |
| Time | Latitude | Longitude | Altitude | Speed | Heading |
|---|---|---|---|---|---|
| 2026-04-25 09:05 | 17.23425 | 78.42731 | 2000 ft | 0 kts | 359° |
| 2026-04-25 09:22 | 17.23424 | 78.42731 | 1979 ft | 2 kts | 359° |
| 2026-04-25 09:22 | 17.23408 | 78.42731 | 1983 ft | 2 kts | 359° |
| 2026-04-25 09:22 | 17.23391 | 78.42731 | 1981 ft | 2 kts | 359° |
| 2026-04-25 09:22 | 17.23374 | 78.42731 | 1983 ft | 2 kts | 360° |
| 2026-04-25 09:23 | 17.23358 | 78.42731 | 1981 ft | 2 kts | 2° |
| 2026-04-25 09:23 | 17.23343 | 78.42726 | 1980 ft | 2 kts | 40° |
| 2026-04-25 09:23 | 17.23332 | 78.42713 | 1980 ft | 2 kts | 64° |
| 2026-04-25 09:23 | 17.23327 | 78.42700 | 1983 ft | 1 kts | 82° |
| 2026-04-25 09:24 | 17.23327 | 78.42698 | 1983 ft | 0 kts | 85° |
| 2026-04-25 09:25 | 17.23327 | 78.42702 | 1983 ft | 2 kts | 85° |
| 2026-04-25 09:26 | 17.23320 | 78.42715 | 1980 ft | 3 kts | 130° |
| 2026-04-25 09:26 | 17.23298 | 78.42726 | 1981 ft | 5 kts | 165° |
| 2026-04-25 09:26 | 17.23260 | 78.42728 | 1983 ft | 6 kts | 177° |
| 2026-04-25 09:26 | 17.23208 | 78.42728 | 1981 ft | 9 kts | 178° |
| 2026-04-25 09:27 | 17.23196 | 78.42729 | 1981 ft | 0 kts | 178° |
| 2026-04-25 09:28 | 17.23188 | 78.42729 | 1981 ft | 2 kts | 178° |
| 2026-04-25 09:28 | 17.23165 | 78.42729 | 1980 ft | 4 kts | 180° |
| 2026-04-25 09:28 | 17.23126 | 78.42731 | 1983 ft | 7 kts | 169° |
| 2026-04-25 09:28 | 17.23089 | 78.42768 | 1981 ft | 9 kts | 113° |
| 2026-04-25 09:29 | 17.23081 | 78.42842 | 1979 ft | 11 kts | 89° |
| 2026-04-25 09:29 | 17.23082 | 78.42929 | 1979 ft | 13 kts | 88° |
| 2026-04-25 09:29 | 17.23083 | 78.43027 | 1980 ft | 14 kts | 89° |
| 2026-04-25 09:29 | 17.23084 | 78.43134 | 1983 ft | 14 kts | 89° |
| 2026-04-25 09:30 | 17.23086 | 78.43243 | 1979 ft | 14 kts | 89° |
| 2026-04-25 09:30 | 17.23087 | 78.43320 | 1978 ft | 11 kts | 89° |
| 2026-04-25 09:30 | 17.23088 | 78.43405 | 1978 ft | 12 kts | 89° |
| 2026-04-25 09:30 | 17.23090 | 78.43500 | 1979 ft | 14 kts | 89° |
| 2026-04-25 09:31 | 17.23091 | 78.43602 | 1979 ft | 15 kts | 89° |
| 2026-04-25 09:31 | 17.23091 | 78.43678 | 1979 ft | 16 kts | 89° |
| 2026-04-25 09:31 | 17.23094 | 78.43841 | 1979 ft | 18 kts | 89° |
| 2026-04-25 09:31 | 17.23097 | 78.43973 | 1980 ft | 19 kts | 89° |
| 2026-04-25 09:32 | 17.23098 | 78.44109 | 1982 ft | 19 kts | 89° |
| 2026-04-25 09:32 | 17.23101 | 78.44253 | 1982 ft | 20 kts | 90° |
| 2026-04-25 09:32 | 17.23102 | 78.44406 | 1980 ft | 21 kts | 89° |
| 2026-04-25 09:32 | 17.23106 | 78.44564 | 1980 ft | 22 kts | 89° |
| 2026-04-25 09:33 | 17.23106 | 78.44728 | 1979 ft | 23 kts | 89° |
| 2026-04-25 09:33 | 17.23110 | 78.44899 | 1980 ft | 22 kts | 88° |
| 2026-04-25 09:33 | 17.23113 | 78.45059 | 1981 ft | 21 kts | 90° |
| 2026-04-25 09:33 | 17.23113 | 78.45189 | 1983 ft | 11 kts | 89° |
| 2026-04-25 09:34 | 17.23114 | 78.45224 | 1980 ft | 0 kts | 89° |
| 2026-04-25 09:34 | 17.23114 | 78.45225 | 1980 ft | 0 kts | 89° |
| 2026-04-25 09:34 | 17.23114 | 78.45229 | 1981 ft | 2 kts | 88° |
| 2026-04-25 09:35 | 17.23115 | 78.45249 | 1981 ft | 4 kts | 86° |
| 2026-04-25 09:35 | 17.23112 | 78.45282 | 1982 ft | 0 kts | 110° |
| 2026-04-25 09:37 | 17.23111 | 78.45285 | 1981 ft | 2 kts | 110° |
| 2026-04-25 09:37 | 17.23094 | 78.45309 | 1981 ft | 5 kts | 143° |
| 2026-04-25 09:37 | 17.23084 | 78.45314 | 1979 ft | 0 kts | 154° |
| 2026-04-25 09:44 | 17.23081 | 78.45316 | 1979 ft | 1 kts | 154° |
| 2026-04-25 09:44 | 17.23063 | 78.45322 | 1979 ft | 4 kts | 171° |
| 2026-04-25 09:44 | 17.23027 | 78.45321 | 1979 ft | 7 kts | 182° |
| 2026-04-25 09:45 | 17.22979 | 78.45301 | 1980 ft | 8 kts | 214° |
| 2026-04-25 09:45 | 17.22933 | 78.45258 | 1981 ft | 9 kts | 229° |
| 2026-04-25 09:45 | 17.22910 | 78.45190 | 1982 ft | 11 kts | 261° |
| 2026-04-25 09:45 | 17.22909 | 78.45147 | 1981 ft | 0 kts | 270° |
| 2026-04-25 09:46 | 17.22908 | 78.45109 | 1981 ft | 21 kts | 268° |
| 2026-04-25 09:46 | 17.22900 | 78.44700 | 1981 ft | 90 kts | 270° |
| 2026-04-25 09:47 | 17.22889 | 78.43842 | 1980 ft | 144 kts | 269° |
| 2026-04-25 09:47 | 17.22876 | 78.42640 | 2042 ft | 181 kts | 270° |
| 2026-04-25 09:47 | 17.22849 | 78.41285 | 2503 ft | 191 kts | 269° |
| 2026-04-25 09:47 | 17.22819 | 78.39863 | 3007 ft | 200 kts | 268° |
| 2026-04-25 09:48 | 17.22783 | 78.38366 | 3455 ft | 213 kts | 269° |
| 2026-04-25 09:48 | 17.22752 | 78.36771 | 3886 ft | 224 kts | 269° |
| 2026-04-25 09:48 | 17.22740 | 78.35090 | 4251 ft | 244 kts | 271° |
| 2026-04-25 09:48 | 17.22855 | 78.33214 | 4430 ft | 271 kts | 279° |
| 2026-04-25 09:49 | 17.23244 | 78.31230 | 4908 ft | 284 kts | 286° |
| 2026-04-25 09:49 | 17.23805 | 78.29235 | 5585 ft | 287 kts | 286° |
| 2026-04-25 09:49 | 17.24355 | 78.27220 | 6331 ft | 289 kts | 287° |
| 2026-04-25 09:49 | 17.24916 | 78.25192 | 7049 ft | 291 kts | 287° |
| 2026-04-25 09:50 | 17.25493 | 78.23153 | 7781 ft | 293 kts | 287° |
| 2026-04-25 09:50 | 17.26075 | 78.21135 | 8701 ft | 286 kts | 288° |
| 2026-04-25 09:50 | 17.26653 | 78.19142 | 9537 ft | 287 kts | 288° |
| 2026-04-25 09:50 | 17.27234 | 78.17149 | 10154 ft | 293 kts | 288° |
| 2026-04-25 09:51 | 17.27851 | 78.15033 | 10412 ft | 315 kts | 288° |
| 2026-04-25 09:51 | 17.28514 | 78.12758 | 10606 ft | 337 kts | 288° |
| 2026-04-25 09:51 | 17.29214 | 78.10353 | 10874 ft | 353 kts | 288° |
| 2026-04-25 09:51 | 17.29933 | 78.07877 | 11510 ft | 358 kts | 287° |
| 2026-04-25 09:52 | 17.30660 | 78.05371 | 12168 ft | 362 kts | 287° |
| 2026-04-25 09:52 | 17.31396 | 78.02836 | 12819 ft | 366 kts | 287° |
| 2026-04-25 09:52 | 17.32138 | 78.00275 | 13481 ft | 369 kts | 287° |
| 2026-04-25 09:52 | 17.32889 | 77.97684 | 13849 ft | 372 kts | 287° |
| 2026-04-25 09:53 | 17.33644 | 77.95079 | 14354 ft | 375 kts | 287° |
| 2026-04-25 09:53 | 17.34400 | 77.92468 | 15067 ft | 374 kts | 287° |
| 2026-04-25 09:53 | 17.35154 | 77.89868 | 15784 ft | 373 kts | 286° |
| 2026-04-25 09:53 | 17.35904 | 77.87276 | 16450 ft | 373 kts | 286° |
| 2026-04-25 09:54 | 17.36656 | 77.84677 | 17103 ft | 373 kts | 286° |
| 2026-04-25 09:54 | 17.37401 | 77.82102 | 17642 ft | 377 kts | 286° |
| 2026-04-25 09:54 | 17.38164 | 77.79463 | 18211 ft | 379 kts | 286° |
| 2026-04-25 09:54 | 17.38929 | 77.76813 | 18699 ft | 381 kts | 286° |
| 2026-04-25 09:55 | 17.39699 | 77.74149 | 19162 ft | 384 kts | 285° |
| 2026-04-25 09:55 | 17.40475 | 77.71460 | 19638 ft | 386 kts | 285° |
| 2026-04-25 09:55 | 17.41253 | 77.68765 | 20109 ft | 389 kts | 285° |
| 2026-04-25 09:55 | 17.42037 | 77.66045 | 20574 ft | 392 kts | 285° |
| 2026-04-25 09:56 | 17.42829 | 77.63299 | 21052 ft | 394 kts | 284° |
| 2026-04-25 09:56 | 17.43604 | 77.60533 | 21489 ft | 397 kts | 282° |
| 2026-04-25 09:56 | 17.44119 | 77.57703 | 21959 ft | 397 kts | 275° |
| 2026-04-25 09:56 | 17.44472 | 77.54824 | 22422 ft | 399 kts | 275° |
| 2026-04-25 09:57 | 17.44840 | 77.51922 | 22881 ft | 401 kts | 275° |
| 2026-04-25 09:57 | 17.45214 | 77.49009 | 23320 ft | 404 kts | 275° |
| 2026-04-25 09:57 | 17.45591 | 77.46082 | 23742 ft | 406 kts | 274° |
| 2026-04-25 09:57 | 17.45968 | 77.43145 | 24158 ft | 407 kts | 274° |
| 2026-04-25 09:58 | 17.46340 | 77.40243 | 24554 ft | 408 kts | 274° |
| 2026-04-25 09:58 | 17.46716 | 77.37296 | 24944 ft | 409 kts | 274° |
| 2026-04-25 09:58 | 17.47092 | 77.34339 | 25333 ft | 410 kts | 274° |
| 2026-04-25 09:58 | 17.47470 | 77.31367 | 25690 ft | 412 kts | 274° |
| 2026-04-25 09:59 | 17.47847 | 77.28399 | 26070 ft | 412 kts | 274° |
| 2026-04-25 09:59 | 17.48226 | 77.25410 | 26427 ft | 414 kts | 274° |
| 2026-04-25 09:59 | 17.48604 | 77.22427 | 26785 ft | 415 kts | 274° |
| 2026-04-25 09:59 | 17.48985 | 77.19415 | 27123 ft | 416 kts | 274° |
| 2026-04-25 10:00 | 17.49366 | 77.16405 | 27473 ft | 417 kts | 274° |
| 2026-04-25 10:00 | 17.49747 | 77.13378 | 27807 ft | 419 kts | 274° |
| 2026-04-25 10:00 | 17.50129 | 77.10348 | 28135 ft | 420 kts | 273° |
| 2026-04-25 10:00 | 17.50512 | 77.07309 | 28444 ft | 421 kts | 273° |
| 2026-04-25 10:01 | 17.50895 | 77.04261 | 28764 ft | 423 kts | 273° |
| 2026-04-25 10:01 | 17.51280 | 77.01200 | 29057 ft | 424 kts | 273° |
| 2026-04-25 10:01 | 17.51660 | 76.98168 | 29353 ft | 425 kts | 273° |
| 2026-04-25 10:01 | 17.52045 | 76.95088 | 29645 ft | 427 kts | 273° |
| 2026-04-25 10:02 | 17.52431 | 76.92005 | 29931 ft | 429 kts | 273° |
| 2026-04-25 10:02 | 17.52819 | 76.88902 | 30177 ft | 430 kts | 273° |
| 2026-04-25 10:02 | 17.53207 | 76.85791 | 30397 ft | 432 kts | 273° |
| 2026-04-25 10:02 | 17.53727 | 76.82672 | 30636 ft | 439 kts | 281° |
| 2026-04-25 10:03 | 17.54867 | 76.79662 | 30872 ft | 450 kts | 292° |
| 2026-04-25 10:03 | 17.56644 | 76.76913 | 31136 ft | 461 kts | 304° |
| 2026-04-25 10:03 | 17.58984 | 76.74562 | 31438 ft | 471 kts | 315° |
| 2026-04-25 10:03 | 17.61652 | 76.72538 | 31739 ft | 475 kts | 319° |
| 2026-04-25 10:04 | 17.64386 | 76.70596 | 31883 ft | 474 kts | 319° |
| 2026-04-25 10:04 | 17.67098 | 76.68633 | 31908 ft | 471 kts | 318° |
| 2026-04-25 10:04 | 17.72374 | 76.64633 | 31917 ft | 470 kts | 317° |
| 2026-04-25 10:05 | 17.77648 | 76.60518 | 31926 ft | 469 kts | 316° |
| 2026-04-25 10:05 | 17.82843 | 76.56448 | 31916 ft | 468 kts | 316° |
| 2026-04-25 10:06 | 17.88063 | 76.52357 | 31921 ft | 467 kts | 316° |
| 2026-04-25 10:06 | 17.93284 | 76.48264 | 31921 ft | 467 kts | 316° |
| 2026-04-25 10:07 | 17.98488 | 76.44184 | 31917 ft | 466 kts | 316° |
| 2026-04-25 10:07 | 18.00867 | 76.41944 | 31915 ft | 455 kts | 304° |
| 2026-04-25 10:07 | 18.02692 | 76.39337 | 31911 ft | 444 kts | 294° |
| 2026-04-25 10:08 | 18.05776 | 76.33732 | 31909 ft | 443 kts | 293° |
| 2026-04-25 10:08 | 18.08875 | 76.28129 | 31910 ft | 443 kts | 294° |
| 2026-04-25 10:09 | 18.12012 | 76.22543 | 31912 ft | 443 kts | 294° |
| 2026-04-25 10:09 | 18.15156 | 76.16956 | 31915 ft | 444 kts | 294° |
| 2026-04-25 10:10 | 18.18298 | 76.11368 | 31915 ft | 444 kts | 294° |
| 2026-04-25 10:10 | 18.21423 | 76.05803 | 31915 ft | 444 kts | 294° |
| 2026-04-25 10:11 | 18.24565 | 76.00204 | 31919 ft | 444 kts | 293° |
| 2026-04-25 10:11 | 18.27708 | 75.94598 | 31922 ft | 444 kts | 293° |
| 2026-04-25 10:12 | 18.30852 | 75.88985 | 31922 ft | 444 kts | 293° |
| 2026-04-25 10:13 | 18.35539 | 75.80608 | 31922 ft | 444 kts | 293° |
| 2026-04-25 10:13 | 18.38672 | 75.75002 | 31917 ft | 444 kts | 293° |
| 2026-04-25 10:14 | 18.41797 | 75.69405 | 31917 ft | 443 kts | 293° |
| 2026-04-25 10:14 | 18.44921 | 75.63805 | 31911 ft | 443 kts | 293° |
| 2026-04-25 10:15 | 18.48037 | 75.58216 | 31903 ft | 442 kts | 293° |
| 2026-04-25 10:15 | 18.51148 | 75.52629 | 31894 ft | 441 kts | 293° |
| 2026-04-25 10:16 | 18.54234 | 75.47082 | 31886 ft | 441 kts | 293° |
| 2026-04-25 10:16 | 18.57332 | 75.41508 | 31883 ft | 441 kts | 293° |
| 2026-04-25 10:17 | 18.60433 | 75.35925 | 31880 ft | 441 kts | 293° |
| 2026-04-25 10:17 | 18.63530 | 75.30344 | 31889 ft | 441 kts | 293° |
| 2026-04-25 10:18 | 18.66628 | 75.24756 | 31892 ft | 440 kts | 293° |
| 2026-04-25 10:18 | 18.69717 | 75.19180 | 31894 ft | 440 kts | 293° |
| 2026-04-25 10:19 | 18.72784 | 75.13639 | 31892 ft | 440 kts | 293° |
| 2026-04-25 10:19 | 18.75874 | 75.08050 | 31881 ft | 440 kts | 293° |
| 2026-04-25 10:20 | 18.78967 | 75.02451 | 31886 ft | 440 kts | 293° |
| 2026-04-25 10:20 | 18.82027 | 74.96907 | 31885 ft | 440 kts | 293° |
| 2026-04-25 10:21 | 18.84588 | 74.92263 | 31883 ft | 440 kts | 293° |
| 2026-04-25 10:21 | 18.87664 | 74.86679 | 31883 ft | 440 kts | 293° |
| 2026-04-25 10:22 | 18.90733 | 74.81107 | 31595 ft | 436 kts | 293° |
| 2026-04-25 10:22 | 18.92259 | 74.78333 | 31011 ft | 437 kts | 294° |
| 2026-04-25 10:22 | 18.93786 | 74.75549 | 30244 ft | 439 kts | 294° |
| 2026-04-25 10:22 | 18.95320 | 74.72751 | 29552 ft | 438 kts | 294° |
| 2026-04-25 10:23 | 18.96845 | 74.69974 | 28884 ft | 435 kts | 295° |
| 2026-04-25 10:23 | 18.98344 | 74.67241 | 28238 ft | 433 kts | 295° |
| 2026-04-25 10:23 | 18.99850 | 74.64495 | 27586 ft | 431 kts | 296° |
| 2026-04-25 10:23 | 19.01349 | 74.61759 | 26945 ft | 429 kts | 296° |
| 2026-04-25 10:24 | 19.02836 | 74.59044 | 26351 ft | 426 kts | 296° |
| 2026-04-25 10:24 | 19.04318 | 74.56336 | 25723 ft | 425 kts | 297° |
| 2026-04-25 10:24 | 19.05794 | 74.53638 | 25193 ft | 421 kts | 297° |
| 2026-04-25 10:24 | 19.07251 | 74.50977 | 24957 ft | 417 kts | 297° |
| 2026-04-25 10:25 | 19.08715 | 74.48301 | 24902 ft | 423 kts | 298° |
| 2026-04-25 10:25 | 19.10190 | 74.45605 | 24896 ft | 424 kts | 298° |
| 2026-04-25 10:25 | 19.11663 | 74.42913 | 24895 ft | 423 kts | 298° |
| 2026-04-25 10:25 | 19.13139 | 74.40214 | 24893 ft | 423 kts | 298° |
| 2026-04-25 10:26 | 19.14614 | 74.37515 | 24893 ft | 423 kts | 298° |
| 2026-04-25 10:26 | 19.16069 | 74.34851 | 24894 ft | 424 kts | 298° |
| 2026-04-25 10:26 | 19.17560 | 74.32122 | 24892 ft | 424 kts | 298° |
| 2026-04-25 10:26 | 19.19016 | 74.29456 | 24893 ft | 424 kts | 298° |
| 2026-04-25 10:27 | 19.20490 | 74.26755 | 24892 ft | 424 kts | 298° |
| 2026-04-25 10:27 | 19.21971 | 74.24042 | 24892 ft | 424 kts | 298° |
| 2026-04-25 10:27 | 19.23444 | 74.21340 | 24889 ft | 424 kts | 298° |
| 2026-04-25 10:27 | 19.24915 | 74.18642 | 24887 ft | 424 kts | 298° |
| 2026-04-25 10:28 | 19.26389 | 74.15936 | 24864 ft | 423 kts | 298° |
| 2026-04-25 10:28 | 19.27856 | 74.13243 | 24564 ft | 421 kts | 298° |
| 2026-04-25 10:28 | 19.29315 | 74.10562 | 24133 ft | 420 kts | 298° |
| 2026-04-25 10:28 | 19.30770 | 74.07887 | 23615 ft | 418 kts | 298° |
| 2026-04-25 10:29 | 19.32218 | 74.05220 | 22989 ft | 416 kts | 299° |
| 2026-04-25 10:29 | 19.33626 | 74.02598 | 22435 ft | 413 kts | 299° |
| 2026-04-25 10:29 | 19.35052 | 73.99922 | 21845 ft | 410 kts | 299° |
| 2026-04-25 10:29 | 19.36423 | 73.97331 | 21284 ft | 407 kts | 299° |
| 2026-04-25 10:30 | 19.37794 | 73.94720 | 20720 ft | 405 kts | 299° |
| 2026-04-25 10:30 | 19.39150 | 73.92115 | 20186 ft | 402 kts | 299° |
| 2026-04-25 10:30 | 19.40488 | 73.89529 | 19659 ft | 399 kts | 299° |
| 2026-04-25 10:30 | 19.41805 | 73.86963 | 19383 ft | 390 kts | 299° |
| 2026-04-25 10:31 | 19.43075 | 73.84478 | 19238 ft | 377 kts | 299° |
| 2026-04-25 10:31 | 19.44298 | 73.82079 | 19126 ft | 364 kts | 299° |
| 2026-04-25 10:31 | 19.45479 | 73.79756 | 19009 ft | 351 kts | 299° |
| 2026-04-25 10:31 | 19.46620 | 73.77505 | 18805 ft | 343 kts | 299° |
| 2026-04-25 10:32 | 19.47740 | 73.75281 | 18419 ft | 342 kts | 299° |
| 2026-04-25 10:32 | 19.48855 | 73.73059 | 18018 ft | 340 kts | 299° |
| 2026-04-25 10:32 | 19.49961 | 73.70846 | 17592 ft | 338 kts | 299° |
| 2026-04-25 10:32 | 19.51056 | 73.68640 | 17193 ft | 337 kts | 296° |
| 2026-04-25 10:33 | 19.51692 | 73.66280 | 16819 ft | 336 kts | 274° |
| 2026-04-25 10:33 | 19.51427 | 73.63835 | 16514 ft | 331 kts | 252° |
| 2026-04-25 10:33 | 19.50680 | 73.61581 | 16404 ft | 319 kts | 250° |
| 2026-04-25 10:33 | 19.49933 | 73.59405 | 16223 ft | 310 kts | 250° |
| 2026-04-25 10:34 | 19.49200 | 73.57267 | 15980 ft | 304 kts | 250° |
| 2026-04-25 10:34 | 19.48498 | 73.55218 | 15775 ft | 296 kts | 250° |
| 2026-04-25 10:34 | 19.47800 | 73.53178 | 15442 ft | 294 kts | 250° |
| 2026-04-25 10:34 | 19.47105 | 73.51139 | 15073 ft | 293 kts | 250° |
| 2026-04-25 10:35 | 19.46415 | 73.49116 | 14717 ft | 291 kts | 250° |
| 2026-04-25 10:35 | 19.45726 | 73.47099 | 14397 ft | 288 kts | 250° |
| 2026-04-25 10:35 | 19.45048 | 73.45111 | 14084 ft | 283 kts | 250° |
| 2026-04-25 10:35 | 19.44390 | 73.43184 | 13897 ft | 274 kts | 250° |
| 2026-04-25 10:36 | 19.43744 | 73.41293 | 13533 ft | 272 kts | 250° |
| 2026-04-25 10:36 | 19.43107 | 73.39418 | 13239 ft | 266 kts | 250° |
| 2026-04-25 10:36 | 19.42480 | 73.37561 | 12676 ft | 271 kts | 250° |
| 2026-04-25 10:36 | 19.41852 | 73.35690 | 12301 ft | 269 kts | 250° |
| 2026-04-25 10:37 | 19.41243 | 73.33868 | 12169 ft | 256 kts | 250° |
| 2026-04-25 10:37 | 19.40657 | 73.32112 | 11854 ft | 250 kts | 250° |
| 2026-04-25 10:37 | 19.40088 | 73.30391 | 11513 ft | 242 kts | 250° |
| 2026-04-25 10:37 | 19.39530 | 73.28700 | 10906 ft | 245 kts | 250° |
| 2026-04-25 10:38 | 19.38970 | 73.26995 | 10445 ft | 242 kts | 250° |
| 2026-04-25 10:38 | 19.38424 | 73.25336 | 10058 ft | 236 kts | 250° |
| 2026-04-25 10:38 | 19.37905 | 73.23740 | 9828 ft | 226 kts | 250° |
| 2026-04-25 10:38 | 19.37388 | 73.22143 | 9303 ft | 231 kts | 250° |
| 2026-04-25 10:39 | 19.36860 | 73.20529 | 8797 ft | 232 kts | 250° |
| 2026-04-25 10:39 | 19.36327 | 73.18919 | 8328 ft | 230 kts | 250° |
| 2026-04-25 10:39 | 19.35799 | 73.17335 | 7939 ft | 225 kts | 250° |
| 2026-04-25 10:39 | 19.35285 | 73.15806 | 7810 ft | 219 kts | 250° |
| 2026-04-25 10:40 | 19.34768 | 73.14270 | 7778 ft | 228 kts | 250° |
| 2026-04-25 10:40 | 19.34237 | 73.12694 | 7692 ft | 226 kts | 250° |
| 2026-04-25 10:40 | 19.33653 | 73.11157 | 7391 ft | 224 kts | 237° |
| 2026-04-25 10:40 | 19.32519 | 73.10064 | 6964 ft | 222 kts | 203° |
| 2026-04-25 10:41 | 19.31023 | 73.09819 | 6542 ft | 219 kts | 168° |
| 2026-04-25 10:41 | 19.29686 | 73.10479 | 6245 ft | 209 kts | 141° |
| 2026-04-25 10:41 | 19.28550 | 73.11407 | 5976 ft | 204 kts | 140° |
| 2026-04-25 10:41 | 19.27430 | 73.12325 | 5613 ft | 204 kts | 140° |
| 2026-04-25 10:42 | 19.26304 | 73.13254 | 5229 ft | 206 kts | 140° |
| 2026-04-25 10:42 | 19.25189 | 73.14172 | 5030 ft | 199 kts | 140° |
| 2026-04-25 10:42 | 19.24076 | 73.15093 | 5010 ft | 207 kts | 140° |
| 2026-04-25 10:42 | 19.22935 | 73.16035 | 4973 ft | 207 kts | 140° |
| 2026-04-25 10:43 | 19.21798 | 73.16911 | 4764 ft | 206 kts | 152° |
| 2026-04-25 10:43 | 19.20398 | 73.17201 | 4421 ft | 208 kts | 179° |
| 2026-04-25 10:43 | 19.18940 | 73.17198 | 4120 ft | 209 kts | 180° |
| 2026-04-25 10:43 | 19.17520 | 73.17197 | 4008 ft | 198 kts | 180° |
| 2026-04-25 10:44 | 19.16133 | 73.17200 | 4012 ft | 207 kts | 180° |
| 2026-04-25 10:44 | 19.14650 | 73.17185 | 3993 ft | 213 kts | 182° |
| 2026-04-25 10:44 | 19.13268 | 73.16705 | 4004 ft | 212 kts | 218° |
| 2026-04-25 10:44 | 19.12336 | 73.15558 | 3989 ft | 202 kts | 239° |
| 2026-04-25 10:45 | 19.11561 | 73.14324 | 4006 ft | 204 kts | 239° |
| 2026-04-25 10:45 | 19.10783 | 73.13073 | 4006 ft | 206 kts | 239° |
| 2026-04-25 10:45 | 19.09997 | 73.11805 | 3990 ft | 204 kts | 241° |
| 2026-04-25 10:45 | 19.09423 | 73.10464 | 3910 ft | 196 kts | 258° |
| 2026-04-25 10:46 | 19.09202 | 73.09061 | 3585 ft | 194 kts | 269° |
| 2026-04-25 10:46 | 19.09151 | 73.07625 | 3233 ft | 196 kts | 275° |
| 2026-04-25 10:46 | 19.09141 | 73.06211 | 3089 ft | 187 kts | 273° |
| 2026-04-25 10:46 | 19.09122 | 73.04826 | 2974 ft | 194 kts | 274° |
| 2026-04-25 10:47 | 19.09105 | 73.03402 | 2768 ft | 193 kts | 274° |
| 2026-04-25 10:47 | 19.09083 | 73.02000 | 2550 ft | 187 kts | 273° |
| 2026-04-25 10:47 | 19.09063 | 73.00638 | 2317 ft | 185 kts | 273° |
| 2026-04-25 10:47 | 19.09044 | 72.99275 | 2100 ft | 183 kts | 273° |
| 2026-04-25 10:48 | 19.09025 | 72.97949 | 1863 ft | 178 kts | 273° |
| 2026-04-25 10:48 | 19.09007 | 72.96666 | 1658 ft | 173 kts | 274° |
| 2026-04-25 10:48 | 19.08991 | 72.95403 | 1431 ft | 171 kts | 273° |
| 2026-04-25 10:48 | 19.08975 | 72.94153 | 1229 ft | 173 kts | 272° |
| 2026-04-25 10:49 | 19.08955 | 72.92899 | 1005 ft | 162 kts | 273° |
| 2026-04-25 10:49 | 19.08939 | 72.91787 | 818 ft | 142 kts | 271° |
| 2026-04-25 10:49 | 19.08927 | 72.90773 | 648 ft | 133 kts | 270° |